KOTM/OTM METAR and TAF weather

Enter ICAO airport designator
Station Type Date Time Source
KOTM METAR 2018/12/17 15:53 UTC NOAA

KOTM 171553Z AUTO 33004KT 10SM CLR 02/M03 A3030 RMK AO2 SLP269 T00171028


Station Type Date Time Source
KOTM Decoded METAR 2018/12/17 15:53 UTC NOAA

OTTUMWA INDUSTRIAL AIRPORT, IA, United States (KOTM) 41-06N 092-27W 256M
Dec 17, 2018 - 10:53 AM EST / 2018.12.17 1553 UTC
Wind: from the NNW (330 degrees) at 5 MPH (4 KT):0
Visibility: 10 mile(s):0
Sky conditions: clear
Temperature: 35.1 F (1.7 C)
Dew Point: 27.0 F (-2.8 C)
Relative Humidity: 71%
Pressure (altimeter): 30.3 in. Hg (1026 hPa)
ob: KOTM 171553Z AUTO 33004KT 10SM CLR 02/M03 A3030 RMK AO2 SLP269 T00171028
cycle: 16

Station Type Date Time Source
KOTM TAF 2018/12/17 12:22 UTC NOAA

TAF KOTM 171120Z 1712/1812 VRB05KT P6SM SKC


Example: see airport list